Terminal Aerodrome Forecast
Issued by NWS Buffalo, NY

Home | Current Version | Previous Version | Text Only | Print | Product List | Glossary On
Versions: 1 2 3 4 5 6 7 8 9 10 11 12 13 14 15 16 17 18 19 20 21 22 23 24 25 26
313
FTUS41 KBUF 240221 AAB
TAFROC
TAF AMD
KROC 240221Z 2402/2424 25008KT P6SM VCSH BKN025
     FM240400 29008KT P6SM BKN040
     FM240800 28008KT P6SM SCT050
     FM241400 27010KT P6SM SCT050
     FM241800 27012G20KT P6SM VCSH BKN040
     FM242300 26010KT P6SM SCT040=

USA.gov is the U.S. government's official web portal to all federal, state and local government web resources and services.